Time;durP1;ratioP1;P1;durP2;ratioP2;P2;SDS_P1;SDS_P2;PMS_P1;PMS_P2;Temp;Humidity;BMP_temperature;BMP_pressure;BME280_temperature;BME280_humidity;BME280_pressure;Samples;Min_cycle;Max_cycle;Signal;HPM_P1;HPM_P2
2023/01/01 00:00:33;;;;;;;;;;;;;;;16.34;62.46;100506.06;2084846;28;20008;-74
2023/01/01 00:01:39;;;;;;;;;;;;;;;16.33;62.65;100504.47;2086090;28;19936;-74
2023/01/01 00:02:41;;;;;;;;;;;;;;;16.34;62.86;100500.63;2078987;28;20328;-74
2023/01/01 00:03:48;;;;;;;;;;;;;;;16.34;62.63;100508.00;2083371;28;19925;-74
2023/01/01 00:04:51;;;;;;;;;;;;;;;16.34;62.82;100511.50;2086267;28;20015;-74
2023/01/01 00:05:53;;;;;;;;;;;;;;;16.33;62.82;100493.59;2079117;28;20385;-74
2023/01/01 00:06:55;;;;;;;;;;;;;;;16.33;62.82;100496.31;2082866;28;20273;-74
2023/01/01 00:07:58;;;;;;;;;;;;;;;16.33;62.97;100499.03;2072834;28;20993;-74
2023/01/01 00:10:30;;;;;;;;;;;;;;;16.35;62.88;100512.28;2081634;28;20011;-74
2023/01/01 00:11:32;;;;;;;;;;;;;;;16.34;62.70;100503.34;2078758;28;19968;-74
2023/01/01 00:12:34;;;;;;;;;;;;;;;16.34;62.89;100495.16;2077937;28;19940;-74
2023/01/01 00:13:38;;;;;;;;;;;;;;;16.34;62.80;100500.63;2081140;28;19958;-74
2023/01/01 00:14:43;;;;;;;;;;;;;;;16.33;62.62;100501.75;2080535;28;19929;-74
2023/01/01 00:15:45;;;;;;;;;;;;;;;16.33;62.65;100499.03;2072756;28;19925;-74
2023/01/01 00:16:48;;;;;;;;;;;;;;;16.34;62.73;100500.63;2084909;28;19929;-75
2023/01/01 00:17:51;;;;;;;;;;;;;;;16.34;62.78;100497.09;2083419;28;19936;-74
2023/01/01 00:18:52;;;;;;;;;;;;;;;16.34;62.84;100506.06;2066146;28;19929;-75
2023/01/01 00:19:55;;;;;;;;;;;;;;;16.34;62.86;100518.91;2060458;28;19937;-74
2023/01/01 00:21:01;;;;;;;;;;;;;;;16.34;62.76;100499.81;2061515;28;19934;-74
2023/01/01 00:22:04;;;;;;;;;;;;;;;16.34;62.68;100506.06;2068519;28;19926;-74
2023/01/01 00:23:26;;;;;;;;;;;;;;;16.34;62.69;100514.22;2080822;28;19948;-74
2023/01/01 00:24:28;;;;;;;;;;;;;;;16.34;62.88;100506.06;2077391;28;19929;-74
2023/01/01 00:25:32;;;;;;;;;;;;;;;16.35;62.78;100518.50;2076537;28;20003;-74
2023/01/01 00:26:34;;;;;;;;;;;;;;;16.35;62.66;100521.22;2084240;28;19932;-74
2023/01/01 00:27:37;;;;;;;;;;;;;;;16.34;62.67;100522.41;2080399;28;20666;-74
2023/01/01 00:28:38;;;;;;;;;;;;;;;16.34;62.76;100506.06;2067655;28;19984;-74
2023/01/01 00:29:41;;;;;;;;;;;;;;;16.34;62.63;100519.69;2069724;28;19960;-74
2023/01/01 00:30:44;;;;;;;;;;;;;;;16.34;62.62;100514.22;2077767;28;19926;-74
2023/01/01 00:31:46;;;;;;;;;;;;;;;16.35;62.86;100513.06;2078346;28;20431;-74
2023/01/01 00:32:49;;;;;;;;;;;;;;;16.35;62.91;100513.06;2072360;28;19933;-74
2023/01/01 00:33:56;;;;;;;;;;;;;;;16.34;62.84;100519.69;2070818;28;19936;-74
2023/01/01 00:34:58;;;;;;;;;;;;;;;16.33;62.90;100506.44;2080405;28;19929;-74
2023/01/01 00:36:05;;;;;;;;;;;;;;;16.35;62.85;100510.34;2084976;28;19925;-75
2023/01/01 00:37:07;;;;;;;;;;;;;;;16.35;62.85;100525.88;2072612;28;19925;-75
2023/01/01 00:38:09;;;;;;;;;;;;;;;16.34;62.81;100522.41;2058200;28;19930;-75
2023/01/01 00:39:12;;;;;;;;;;;;;;;16.34;62.75;100521.63;2079376;28;19979;-74
2023/01/01 00:40:14;;;;;;;;;;;;;;;16.34;62.68;100532.53;2085736;28;19932;-75
2023/01/01 00:41:17;;;;;;;;;;;;;;;16.34;62.84;100511.50;2079644;28;19929;-75
2023/01/01 00:42:20;;;;;;;;;;;;;;;16.35;62.80;100518.50;2070459;28;19929;-75
2023/01/01 00:43:23;;;;;;;;;;;;;;;16.35;62.61;100517.72;2070643;28;20368;-75
2023/01/01 00:44:24;;;;;;;;;;;;;;;16.34;62.66;100500.63;2071632;28;19929;-75
2023/01/01 00:45:27;;;;;;;;;;;;;;;16.34;62.62;100506.06;2063843;28;19937;-74
2023/01/01 00:46:29;;;;;;;;;;;;;;;16.34;62.86;100500.63;2080054;28;19933;-74
2023/01/01 00:47:31;;;;;;;;;;;;;;;16.34;62.62;100505.28;2086124;28;20415;-74
2023/01/01 00:48:34;;;;;;;;;;;;;;;16.35;62.66;100515.00;2078243;28;20317;-74
2023/01/01 00:49:35;;;;;;;;;;;;;;;16.35;62.78;100517.72;2080696;28;19929;-74
2023/01/01 00:50:38;;;;;;;;;;;;;;;16.34;62.97;100521.63;2075452;28;19972;-74
2023/01/01 00:51:40;;;;;;;;;;;;;;;16.34;62.81;100514.22;2072901;28;19930;-75
2023/01/01 00:52:42;;;;;;;;;;;;;;;16.33;62.80;100526.28;2079444;28;19929;-75
2023/01/01 00:53:44;;;;;;;;;;;;;;;16.35;62.67;100531.34;2066057;28;20382;-74
2023/01/01 00:54:46;;;;;;;;;;;;;;;16.34;62.84;100537.97;2070679;28;19933;-74
2023/01/01 00:55:49;;;;;;;;;;;;;;;16.34;62.60;100555.09;2072169;28;19984;-74
2023/01/01 00:56:53;;;;;;;;;;;;;;;16.34;62.91;100530.59;2074785;28;20435;-75
2023/01/01 00:57:54;;;;;;;;;;;;;;;16.35;62.81;100534.06;2076251;28;19929;-74
2023/01/01 00:58:57;;;;;;;;;;;;;;;16.34;62.79;100527.84;2072128;28;19930;-74
2023/01/01 01:00:01;;;;;;;;;;;;;;;16.35;62.67;100540.31;2087583;28;19928;-75
2023/01/01 01:01:04;;;;;;;;;;;;;;;16.35;62.82;100534.06;2076156;28;20463;-74
2023/01/01 01:02:05;;;;;;;;;;;;;;;16.34;62.82;100546.94;2076353;28;19970;-75
2023/01/01 01:03:08;;;;;;;;;;;;;;;16.35;62.56;100534.06;2086198;28;19928;-74
2023/01/01 01:04:10;;;;;;;;;;;;;;;16.34;62.70;100532.53;2075588;28;19933;-74
2023/01/01 01:05:12;;;;;;;;;;;;;;;16.34;62.57;100555.09;2074664;28;20344;-74
2023/01/01 01:06:15;;;;;;;;;;;;;;;16.34;62.60;100532.53;2079340;28;20019;-74
2023/01/01 01:07:18;;;;;;;;;;;;;;;16.34;62.88;100536.03;2086139;28;19975;-74
2023/01/01 01:08:20;;;;;;;;;;;;;;;16.34;62.66;100546.94;2082442;28;20419;-74
2023/01/01 01:09:28;;;;;;;;;;;;;;;16.35;62.68;100520.44;2079011;28;19929;-74
2023/01/01 01:10:30;;;;;;;;;;;;;;;16.34;62.80;100538.75;2088692;28;19929;-74
2023/01/01 01:11:32;;;;;;;;;;;;;;;16.34;62.60;100533.31;2076397;28;19929;-74
2023/01/01 01:12:36;;;;;;;;;;;;;;;16.34;62.68;100546.94;2066627;28;19929;-74
2023/01/01 01:13:39;;;;;;;;;;;;;;;16.35;62.89;100553.94;2078719;28;19932;-75
2023/01/01 01:14:40;;;;;;;;;;;;;;;16.35;62.59;100540.31;2079509;28;19933;-74
2023/01/01 01:15:43;;;;;;;;;;;;;;;16.35;62.76;100551.19;2074155;28;20324;-74
2023/01/01 01:16:46;;;;;;;;;;;;;;;16.34;62.88;100560.56;2073949;28;19929;-75
2023/01/01 01:17:47;;;;;;;;;;;;;;;16.34;62.92;100560.56;2077762;28;19977;-74
2023/01/01 01:18:50;;;;;;;;;;;;;;;16.35;62.82;100555.84;2086295;28;19930;-74
2023/01/01 01:19:52;;;;;;;;;;;;;;;16.35;62.68;100569.47;2079275;28;19929;-74
2023/01/01 01:20:54;;;;;;;;;;;;;;;16.34;62.94;100571.44;2070273;28;19930;-74
2023/01/01 01:21:57;;;;;;;;;;;;;;;16.34;62.94;100571.44;2072405;28;20297;-75
2023/01/01 01:22:59;;;;;;;;;;;;;;;16.35;62.66;100572.22;2075524;28;20324;-75
2023/01/01 01:24:02;;;;;;;;;;;;;;;16.35;62.78;100562.09;2079249;28;19925;-74
2023/01/01 01:25:05;;;;;;;;;;;;;;;16.34;62.67;100566.00;2083158;28;19929;-74
2023/01/01 01:26:08;;;;;;;;;;;;;;;16.34;62.92;100571.44;2084168;28;19929;-74
2023/01/01 01:27:11;;;;;;;;;;;;;;;16.34;62.69;100571.44;2082662;28;19936;-74
2023/01/01 01:28:14;;;;;;;;;;;;;;;16.34;62.76;100581.56;2083132;28;19929;-74
2023/01/01 01:29:17;;;;;;;;;;;;;;;16.35;62.88;100583.91;2073918;28;20460;-74
2023/01/01 01:30:18;;;;;;;;;;;;;;;16.34;62.68;100582.34;2078901;28;20249;-74
2023/01/01 01:31:22;;;;;;;;;;;;;;;16.35;62.99;100574.94;2079016;28;19936;-74
2023/01/01 01:32:23;;;;;;;;;;;;;;;16.35;62.95;100572.22;2080077;28;20034;-74
2023/01/01 01:33:26;;;;;;;;;;;;;;;16.34;62.86;100584.28;2065156;28;19930;-74
2023/01/01 01:34:29;;;;;;;;;;;;;;;16.35;62.59;100583.09;2063601;28;19926;-74
2023/01/01 01:35:31;;;;;;;;;;;;;;;16.34;62.67;100576.09;2070171;28;19944;-74
2023/01/01 01:36:34;;;;;;;;;;;;;;;16.34;62.81;100600.63;2082080;28;19999;-73
2023/01/01 01:37:36;;;;;;;;;;;;;;;16.34;62.69;100587.78;2085890;28;19972;-73
2023/01/01 01:38:38;;;;;;;;;;;;;;;16.35;62.65;100596.72;2085960;28;19925;-72
2023/01/01 01:39:41;;;;;;;;;;;;;;;16.34;62.77;100595.97;2064999;28;19926;-73
2023/01/01 01:40:43;;;;;;;;;;;;;;;16.34;62.80;100593.25;2067469;28;20393;-73
2023/01/01 01:41:45;;;;;;;;;;;;;;;16.35;62.62;100589.34;2075166;28;19928;-72
2023/01/01 01:42:47;;;;;;;;;;;;;;;16.34;62.77;100595.19;2079779;28;20011;-72
2023/01/01 01:43:52;;;;;;;;;;;;;;;16.34;62.67;100590.53;2077747;28;19940;-72
2023/01/01 01:44:57;;;;;;;;;;;;;;;16.35;62.76;100589.34;2088317;28;19928;-72
2023/01/01 01:46:00;;;;;;;;;;;;;;;16.35;62.61;100599.47;2082136;28;19940;-72
2023/01/01 01:47:03;;;;;;;;;;;;;;;16.35;62.83;100591.28;2075336;28;19929;-73
2023/01/01 01:48:05;;;;;;;;;;;;;;;16.35;62.58;100597.53;2074710;28;20012;-72
2023/01/01 01:49:12;;;;;;;;;;;;;;;16.35;62.85;100602.19;2069432;28;19949;-72
2023/01/01 01:50:19;;;;;;;;;;;;;;;16.35;62.86;100605.69;2078368;28;19975;-73
2023/01/01 01:51:23;;;;;;;;;;;;;;;16.35;62.68;100599.47;2083685;28;19929;-72
2023/01/01 01:52:28;;;;;;;;;;;;;;;16.35;62.76;100600.25;2084648;28;19932;-72
2023/01/01 01:53:33;;;;;;;;;;;;;;;16.34;62.72;100604.16;2081644;28;20403;-73
2023/01/01 01:54:35;;;;;;;;;;;;;;;16.35;62.92;100613.88;2081844;28;19925;-72
2023/01/01 01:55:39;;;;;;;;;;;;;;;16.34;62.66;100609.59;2091476;28;19929;-73
2023/01/01 01:56:43;;;;;;;;;;;;;;;16.34;62.90;100598.69;2080429;28;19984;-73
2023/01/01 01:57:45;;;;;;;;;;;;;;;16.35;62.78;100602.19;2072471;28;19929;-72
2023/01/01 01:58:47;;;;;;;;;;;;;;;16.35;62.60;100615.81;2079023;28;20412;-72
2023/01/01 01:59:54;;;;;;;;;;;;;;;16.34;62.90;100619.69;2076765;28;19929;-73
2023/01/01 02:00:56;;;;;;;;;;;;;;;16.34;62.93;100615.03;2072820;28;19933;-73
2023/01/01 02:01:58;;;;;;;;;;;;;;;16.33;62.74;100607.25;2077634;28;20400;-73
2023/01/01 02:03:04;;;;;;;;;;;;;;;16.35;62.89;100621.25;2069836;28;19933;-73
2023/01/01 02:04:05;;;;;;;;;;;;;;;16.34;62.63;100609.59;2076518;28;20039;-73
2023/01/01 02:05:08;;;;;;;;;;;;;;;16.34;62.71;100615.03;2084583;28;19925;-72
2023/01/01 02:06:10;;;;;;;;;;;;;;;16.34;62.61;100606.09;2087581;28;19929;-73
2023/01/01 02:07:14;;;;;;;;;;;;;;;16.35;62.82;100618.53;2086437;28;19928;-72
2023/01/01 02:08:15;;;;;;;;;;;;;;;16.35;62.64;100618.53;2080136;28;20369;-73
2023/01/01 02:09:18;;;;;;;;;;;;;;;16.34;62.75;100598.69;2073643;28;19937;-73
2023/01/01 02:10:20;;;;;;;;;;;;;;;16.34;62.90;100616.97;2083064;28;19952;-73
2023/01/01 02:11:23;;;;;;;;;;;;;;;16.34;62.77;100617.78;2075451;28;19929;-73
2023/01/01 02:12:25;;;;;;;;;;;;;;;16.34;62.71;100611.53;2076546;28;20464;-72
2023/01/01 02:13:27;;;;;;;;;;;;;;;16.34;62.82;100609.59;2085257;28;20340;-73
2023/01/01 02:14:29;;;;;;;;;;;;;;;16.35;62.68;100621.25;2079447;28;19929;-72
2023/01/01 02:15:36;;;;;;;;;;;;;;;16.35;62.63;100599.47;2077312;28;19929;-72
2023/01/01 02:16:41;;;;;;;;;;;;;;;16.35;62.69;100618.53;2075351;28;20063;-72
2023/01/01 02:17:48;;;;;;;;;;;;;;;16.34;62.51;100609.59;2079104;28;19929;-72
2023/01/01 02:18:52;;;;;;;;;;;;;;;16.35;62.90;100607.63;2075095;28;19925;-72
2023/01/01 02:20:03;;;;;;;;;;;;;;;16.33;62.63;100597.13;2077459;28;19933;-72
2023/01/01 02:21:08;;;;;;;;;;;;;;;16.35;62.69;100604.91;2077341;28;19929;-72
2023/01/01 02:22:12;;;;;;;;;;;;;;;16.34;62.66;100597.91;2085530;28;19929;-72
2023/01/01 02:23:22;;;;;;;;;;;;;;;16.34;62.75;100598.69;2078004;28;19975;-72
2023/01/01 02:24:34;;;;;;;;;;;;;;;16.34;62.68;100598.69;2066203;28;19930;-73
2023/01/01 02:25:43;;;;;;;;;;;;;;;16.35;62.91;100594.78;2079954;28;19980;-72
2023/01/01 02:26:49;;;;;;;;;;;;;;;16.34;62.90;100587.78;2075010;28;19937;-72
2023/01/01 02:27:57;;;;;;;;;;;;;;;16.34;62.65;100587.78;2085631;28;20771;-72
2023/01/01 02:29:02;;;;;;;;;;;;;;;16.34;63.03;100612.31;2078189;28;19944;-72
2023/01/01 02:30:06;;;;;;;;;;;;;;;16.34;62.68;100593.25;2075877;28;19937;-73
2023/01/01 02:31:10;;;;;;;;;;;;;;;16.33;62.36;100613.47;2089905;28;19929;-72
2023/01/01 02:32:14;;;;;;;;;;;;;;;16.34;62.91;100603.34;2082645;28;19929;-72
2023/01/01 02:33:18;;;;;;;;;;;;;;;16.34;62.68;100597.91;2076825;28;19937;-72
2023/01/01 02:34:22;;;;;;;;;;;;;;;16.34;62.78;100597.91;2079366;28;20301;-73
2023/01/01 02:35:37;;;;;;;;;;;;;;;16.33;62.63;100597.13;2068439;28;19929;-73
2023/01/01 02:36:41;;;;;;;;;;;;;;;16.33;62.61;100599.84;2080771;28;19929;-72
2023/01/01 02:37:43;;;;;;;;;;;;;;;16.35;62.79;100607.63;2087522;28;19928;-73
2023/01/01 02:38:47;;;;;;;;;;;;;;;16.34;62.84;100604.16;2082773;28;20439;-73
2023/01/01 02:39:52;;;;;;;;;;;;;;;16.35;62.82;100604.91;2085473;28;19929;-73
2023/01/01 02:40:56;;;;;;;;;;;;;;;16.34;62.67;100609.59;2078698;28;19929;-73
2023/01/01 02:42:00;;;;;;;;;;;;;;;16.34;62.89;100587.78;2067245;28;19972;-73
2023/01/01 02:43:03;;;;;;;;;;;;;;;16.33;63.01;100602.56;2079696;28;19929;-73
2023/01/01 02:44:07;;;;;;;;;;;;;;;16.34;62.58;100606.88;2071973;28;19929;-74
2023/01/01 02:45:10;;;;;;;;;;;;;;;16.34;62.66;100601.41;2077386;28;19932;-73
2023/01/01 02:46:13;;;;;;;;;;;;;;;16.35;62.57;100604.91;2078074;28;19983;-73
2023/01/01 02:47:14;;;;;;;;;;;;;;;16.34;62.86;100614.25;2069604;28;20366;-73
2023/01/01 02:48:38;;;;;;;;;;;;;;;16.34;62.73;100608.81;2069793;28;19930;-73
2023/01/01 02:49:45;;;;;;;;;;;;;;;16.34;62.60;100617.78;2085395;28;19932;-73
2023/01/01 02:50:47;;;;;;;;;;;;;;;16.33;62.65;100618.91;2081115;28;20404;-72
2023/01/01 02:51:57;;;;;;;;;;;;;;;16.34;62.69;100631.38;2081270;28;19929;-74
2023/01/01 02:53:07;;;;;;;;;;;;;;;16.34;62.76;100631.38;2074992;28;19929;-73
2023/01/01 02:54:11;;;;;;;;;;;;;;;16.34;62.68;100628.66;2076893;28;19972;-73
2023/01/01 02:55:20;;;;;;;;;;;;;;;16.34;62.60;100625.94;2081188;28;19967;-72
2023/01/01 02:56:27;;;;;;;;;;;;;;;16.34;62.80;100619.69;2084097;28;19925;-73
2023/01/01 02:57:35;;;;;;;;;;;;;;;16.34;62.58;100625.16;2080949;28;19982;-73
2023/01/01 03:00:18;;;;;;;;;;;;;;;16.33;62.86;100635.25;2059256;28;20103;-72
2023/01/01 03:01:23;;;;;;;;;;;;;;;16.33;62.87;100640.72;2052787;28;19926;-73
2023/01/01 03:02:31;;;;;;;;;;;;;;;16.33;62.65;100638.00;2052225;28;19938;-73
2023/01/01 03:03:39;;;;;;;;;;;;;;;16.34;62.83;100652.41;2054031;28;19945;-73
2023/01/01 03:04:46;;;;;;;;;;;;;;;16.34;62.61;100644.22;2050231;28;20525;-73
2023/01/01 03:07:23;;;;;;;;;;;;;;;16.33;62.60;100639.94;2073422;28;19929;-73
2023/01/01 03:08:29;;;;;;;;;;;;;;;16.33;62.91;100662.50;2071998;28;19929;-73
2023/01/01 03:09:37;;;;;;;;;;;;;;;16.33;62.82;100645.41;2074009;28;20328;-73
2023/01/01 03:10:42;;;;;;;;;;;;;;;16.33;62.89;100651.59;2081359;28;19929;-73
2023/01/01 03:11:48;;;;;;;;;;;;;;;16.33;62.80;100640.72;2077327;28;19925;-73
2023/01/01 03:12:53;;;;;;;;;;;;;;;16.33;62.67;100673.41;2073341;28;19930;-73
2023/01/01 03:13:59;;;;;;;;;;;;;;;16.34;62.71;100657.84;2066612;28;19930;-73
2023/01/01 03:15:05;;;;;;;;;;;;;;;16.33;62.68;100667.97;2071659;28;20455;-73
2023/01/01 03:16:13;;;;;;;;;;;;;;;16.34;62.86;100655.13;2087653;28;19925;-73
2023/01/01 03:17:20;;;;;;;;;;;;;;;16.34;62.67;100657.84;2079345;28;19929;-73
2023/01/01 03:18:26;;;;;;;;;;;;;;;16.34;62.71;100664.09;2079346;28;19929;-73
2023/01/01 03:19:29;;;;;;;;;;;;;;;16.33;62.90;100650.84;2079780;28;19976;-73
2023/01/01 03:20:33;;;;;;;;;;;;;;;16.34;62.66;100649.69;2072520;28;20524;-73
2023/01/01 03:21:36;;;;;;;;;;;;;;;16.33;62.82;100656.28;2084640;28;19976;-73
2023/01/01 03:22:41;;;;;;;;;;;;;;;16.34;62.66;100646.94;2080721;28;19933;-73
2023/01/01 03:23:45;;;;;;;;;;;;;;;16.32;62.63;100650.06;2074163;28;19925;-73
2023/01/01 03:24:53;;;;;;;;;;;;;;;16.34;62.86;100663.28;2075982;28;19960;-73
2023/01/01 03:25:59;;;;;;;;;;;;;;;16.34;62.93;100661.38;2078922;28;19929;-72
2023/01/01 03:27:03;;;;;;;;;;;;;;;16.33;62.70;100651.59;2076121;28;20437;-73
2023/01/01 03:28:08;;;;;;;;;;;;;;;16.33;62.82;100648.13;2075480;28;19925;-72
2023/01/01 03:29:12;;;;;;;;;;;;;;;16.33;63.00;100648.13;2088563;28;20003;-73
2023/01/01 03:30:15;;;;;;;;;;;;;;;16.33;62.86;100651.59;2083767;28;19933;-72
2023/01/01 03:31:23;;;;;;;;;;;;;;;16.33;62.59;100651.59;2072388;28;19930;-72
2023/01/01 03:32:58;;;;;;;;;;;;;;;16.33;62.92;100648.88;2075369;28;19929;-73
2023/01/01 03:33:53;;;;;;;;;;;;;;;16.33;62.68;100646.16;2082196;28;19928;-73
2023/01/01 03:34:57;;;;;;;;;;;;;;;16.34;62.88;100642.28;2077743;28;20003;-73
2023/01/01 03:36:01;;;;;;;;;;;;;;;16.34;62.76;100646.94;2077736;28;19933;-73
2023/01/01 03:37:06;;;;;;;;;;;;;;;16.33;62.67;100646.16;2073087;28;20008;-73
2023/01/01 03:38:14;;;;;;;;;;;;;;;16.34;62.72;100642.28;2070709;28;20641;-73
2023/01/01 03:39:21;;;;;;;;;;;;;;;16.33;62.84;100646.16;2075992;28;19945;-73
2023/01/01 03:40:24;;;;;;;;;;;;;;;16.33;62.89;100640.72;2084828;28;19936;-73
2023/01/01 03:41:30;;;;;;;;;;;;;;;16.33;62.86;100646.16;2082037;28;19929;-73
2023/01/01 03:42:34;;;;;;;;;;;;;;;16.33;62.61;100645.41;2084592;28;19936;-73
2023/01/01 03:43:41;;;;;;;;;;;;;;;16.32;62.57;100644.59;2086072;28;19978;-73
2023/01/01 03:44:45;;;;;;;;;;;;;;;16.33;62.94;100654.34;2084093;28;19979;-73
2023/01/01 03:45:50;;;;;;;;;;;;;;;16.33;62.70;100653.56;2087228;28;19970;-73
2023/01/01 03:46:53;;;;;;;;;;;;;;;16.33;62.84;100653.56;2081588;28;19937;-73
2023/01/01 03:47:56;;;;;;;;;;;;;;;16.34;62.71;100644.22;2076412;28;20016;-73
2023/01/01 03:48:59;;;;;;;;;;;;;;;16.33;62.86;100659.78;2078581;28;19925;-73
2023/01/01 03:50:06;;;;;;;;;;;;;;;16.33;62.91;100673.41;2081581;28;19929;-72
2023/01/01 03:51:14;;;;;;;;;;;;;;;16.32;62.64;100658.22;2081195;28;19925;-73
2023/01/01 03:52:23;;;;;;;;;;;;;;;16.32;62.69;100666.41;2089095;28;19929;-73
2023/01/01 03:53:28;;;;;;;;;;;;;;;16.33;62.68;100665.22;2078338;28;19933;-73
2023/01/01 03:54:37;;;;;;;;;;;;;;;16.34;62.84;100652.41;2080027;28;19979;-73
2023/01/01 03:55:44;;;;;;;;;;;;;;;16.33;62.86;100673.41;2075182;28;19925;-73
2023/01/01 03:56:49;;;;;;;;;;;;;;;16.32;62.80;100660.97;2066340;28;19936;-72
2023/01/01 03:57:56;;;;;;;;;;;;;;;16.33;62.70;100669.91;2079613;28;19929;-73
2023/01/01 03:59:01;;;;;;;;;;;;;;;16.33;62.71;100678.09;2074560;28;20024;-73
2023/01/01 04:00:05;;;;;;;;;;;;;;;16.33;62.72;100678.84;2076382;28;19956;-73
2023/01/01 04:01:16;;;;;;;;;;;;;;;16.33;62.93;100676.13;2073896;28;20044;-73
2023/01/01 04:02:20;;;;;;;;;;;;;;;16.33;62.86;100673.41;2077339;28;19975;-72
2023/01/01 04:03:24;;;;;;;;;;;;;;;16.33;62.67;100675.38;2073674;28;19929;-73
2023/01/01 04:04:27;;;;;;;;;;;;;;;16.34;62.66;100671.47;2074247;28;19930;-73
2023/01/01 04:05:30;;;;;;;;;;;;;;;16.33;62.63;100672.66;2080747;28;19932;-73
2023/01/01 04:06:33;;;;;;;;;;;;;;;16.33;62.59;100676.13;2073231;28;19933;-73
2023/01/01 04:07:35;;;;;;;;;;;;;;;16.34;62.81;100679.66;2081461;28;19952;-73
2023/01/01 04:08:37;;;;;;;;;;;;;;;16.33;62.74;100678.09;2082404;28;19978;-72
2023/01/01 04:09:41;;;;;;;;;;;;;;;16.33;62.90;100689.00;2075994;28;20436;-73
2023/01/01 04:10:45;;;;;;;;;;;;;;;16.32;62.55;100682.75;2084695;28;19932;-73
2023/01/01 04:12:03;;;;;;;;;;;;;;;16.32;62.67;100682.75;2087587;28;19972;-73
2023/01/01 04:13:05;;;;;;;;;;;;;;;16.32;62.94;100666.41;2080693;28;19994;-73
2023/01/01 04:14:08;;;;;;;;;;;;;;;16.32;62.74;100682.75;2078333;28;19934;-73
2023/01/01 04:15:11;;;;;;;;;;;;;;;16.32;62.90;100660.16;2080597;28;19933;-73
2023/01/01 04:16:12;;;;;;;;;;;;;;;16.32;62.74;100685.47;2081385;28;20396;-73
2023/01/01 04:17:15;;;;;;;;;;;;;;;16.33;62.41;100680.81;2084726;28;19932;-73
2023/01/01 04:18:18;;;;;;;;;;;;;;;16.32;62.67;100690.94;2089577;28;19928;-73
2023/01/01 04:19:21;;;;;;;;;;;;;;;16.32;62.93;100682.75;2091703;28;19929;-73
2023/01/01 04:20:23;;;;;;;;;;;;;;;16.32;62.61;100693.66;2087143;28;20016;-72
2023/01/01 04:21:26;;;;;;;;;;;;;;;16.32;62.69;100680.03;2080551;28;19962;-72
2023/01/01 04:22:27;;;;;;;;;;;;;;;16.32;62.82;100677.31;2078303;28;19979;-73
2023/01/01 04:23:30;;;;;;;;;;;;;;;16.33;62.62;100678.84;2075891;28;19929;-73
2023/01/01 04:24:32;;;;;;;;;;;;;;;16.33;62.53;100672.66;2072969;28;20317;-73
2023/01/01 04:25:34;;;;;;;;;;;;;;;16.33;62.91;100648.88;2086928;28;19980;-73
2023/01/01 04:26:36;;;;;;;;;;;;;;;16.33;62.68;100662.50;2084397;28;20328;-73
2023/01/01 04:27:39;;;;;;;;;;;;;;;16.33;62.60;100676.13;2082055;28;19929;-73
2023/01/01 04:28:41;;;;;;;;;;;;;;;16.33;62.97;100684.31;2082551;28;19932;-72
2023/01/01 04:29:44;;;;;;;;;;;;;;;16.31;62.62;100675.75;2087134;28;19929;-72
2023/01/01 04:30:45;;;;;;;;;;;;;;;16.33;62.87;100684.31;2092216;28;19928;-72
2023/01/01 04:31:48;;;;;;;;;;;;;;;16.32;62.92;100685.47;2076147;28;20309;-73
2023/01/01 04:32:50;;;;;;;;;;;;;;;16.33;62.86;100676.13;2075445;28;19981;-73
2023/01/01 04:33:54;;;;;;;;;;;;;;;16.33;62.87;100661.75;2089481;28;20403;-73
2023/01/01 04:34:56;;;;;;;;;;;;;;;16.33;62.74;100664.47;2092019;28;19947;-73
2023/01/01 04:36:02;;;;;;;;;;;;;;;16.32;62.59;100677.31;2081981;28;19937;-73
2023/01/01 04:37:05;;;;;;;;;;;;;;;16.32;62.95;100671.84;2075485;28;19925;-73
2023/01/01 04:38:13;;;;;;;;;;;;;;;16.32;62.91;100680.03;2083618;28;20036;-72
2023/01/01 04:39:16;;;;;;;;;;;;;;;16.32;62.80;100682.75;2075409;28;19936;-73
2023/01/01 04:40:17;;;;;;;;;;;;;;;16.32;62.86;100693.66;2073516;28;19925;-73
2023/01/01 04:41:20;;;;;;;;;;;;;;;16.33;63.01;100694.44;2071613;28;19969;-73
2023/01/01 04:42:23;;;;;;;;;;;;;;;16.32;62.71;100704.56;2070122;28;19936;-73
2023/01/01 04:43:24;;;;;;;;;;;;;;;16.32;62.67;100704.56;2084652;28;20431;-73
2023/01/01 04:44:27;;;;;;;;;;;;;;;16.32;62.54;100693.66;2082048;28;19935;-73
2023/01/01 04:45:29;;;;;;;;;;;;;;;16.32;62.88;100710.00;2088240;28;19925;-73
2023/01/01 04:46:31;;;;;;;;;;;;;;;16.33;62.71;100694.44;2079806;28;19978;-73
2023/01/01 04:47:33;;;;;;;;;;;;;;;16.33;62.73;100700.66;2071363;28;19956;-73
2023/01/01 04:48:36;;;;;;;;;;;;;;;16.32;63.00;100704.56;2072592;28;19929;-74
2023/01/01 04:49:39;;;;;;;;;;;;;;;16.32;62.73;100709.22;2071572;28;19929;-72
2023/01/01 04:50:41;;;;;;;;;;;;;;;16.33;62.82;100711.56;2080396;28;19929;-72
2023/01/01 04:51:43;;;;;;;;;;;;;;;16.33;62.84;100710.78;2091796;28;19948;-72
2023/01/01 04:52:50;;;;;;;;;;;;;;;16.33;62.75;100697.94;2090429;28;20427;-73
2023/01/01 04:53:51;;;;;;;;;;;;;;;16.34;62.65;100715.06;2082769;28;19929;-73
2023/01/01 04:54:54;;;;;;;;;;;;;;;16.33;62.83;100716.25;2083564;28;19929;-73
2023/01/01 04:55:56;;;;;;;;;;;;;;;16.32;62.86;100720.91;2084390;28;19929;-73
2023/01/01 04:56:58;;;;;;;;;;;;;;;16.32;62.98;100718.19;2078197;28;19929;-73
2023/01/01 04:58:00;;;;;;;;;;;;;;;16.32;62.71;100707.28;2077498;28;19933;-73
2023/01/01 04:59:02;;;;;;;;;;;;;;;16.33;62.89;100708.81;2077657;28;20325;-73
2023/01/01 05:00:05;;;;;;;;;;;;;;;16.32;62.92;100715.44;2072579;28;20389;-73
2023/01/01 05:01:08;;;;;;;;;;;;;;;16.33;62.78;100729.88;2079037;28;19937;-73
2023/01/01 05:02:09;;;;;;;;;;;;;;;16.33;62.63;100716.25;2077324;28;19933;-73
2023/01/01 05:03:12;;;;;;;;;;;;;;;16.33;62.84;100717.00;2080720;28;20260;-74
2023/01/01 05:04:14;;;;;;;;;;;;;;;16.33;62.90;100718.97;2080120;28;19929;-73
2023/01/01 05:05:18;;;;;;;;;;;;;;;16.33;62.84;100727.13;2078479;28;20792;-73
2023/01/01 05:06:20;;;;;;;;;;;;;;;16.32;62.67;100723.63;2067577;28;19929;-73
2023/01/01 05:07:23;;;;;;;;;;;;;;;16.32;62.84;100733.72;2066397;28;19938;-73
2023/01/01 05:08:24;;;;;;;;;;;;;;;16.33;62.81;100749.69;2076413;28;19932;-73
2023/01/01 05:09:27;;;;;;;;;;;;;;;16.33;62.79;100735.31;2080571;28;19988;-73
2023/01/01 05:10:29;;;;;;;;;;;;;;;16.32;62.88;100718.19;2078106;28;20400;-73
2023/01/01 05:11:32;;;;;;;;;;;;;;;16.33;62.87;100738.78;2077715;28;19929;-73
2023/01/01 05:12:33;;;;;;;;;;;;;;;16.32;62.62;100720.91;2078662;28;20309;-72
2023/01/01 05:13:36;;;;;;;;;;;;;;;16.33;62.89;100721.69;2087580;28;19936;-73
2023/01/01 05:14:38;;;;;;;;;;;;;;;16.33;62.63;100738.03;2088582;28;19925;-73
2023/01/01 05:15:40;;;;;;;;;;;;;;;16.32;62.95;100742.69;2082483;28;19925;-73
2023/01/01 05:16:43;;;;;;;;;;;;;;;16.33;62.83;100746.97;2080912;28;19932;-73
2023/01/01 05:17:44;;;;;;;;;;;;;;;16.32;62.99;100750.88;2081004;28;20032;-73
2023/01/01 05:18:47;;;;;;;;;;;;;;;16.33;62.68;100757.09;2067144;28;20357;-74
2023/01/01 05:19:49;;;;;;;;;;;;;;;16.32;62.71;100742.69;2064256;28;19979;-71
2023/01/01 05:20:53;;;;;;;;;;;;;;;16.32;62.92;100748.16;2077362;28;19936;-73
2023/01/01 05:21:55;;;;;;;;;;;;;;;16.33;62.70;100754.38;2084323;28;19933;-73
2023/01/01 05:22:57;;;;;;;;;;;;;;;16.32;62.78;100739.97;2084060;28;20056;-73
2023/01/01 05:24:00;;;;;;;;;;;;;;;16.33;62.94;100751.66;2083705;28;19936;-73
2023/01/01 05:25:02;;;;;;;;;;;;;;;16.33;62.63;100757.09;2084701;28;19936;-73
2023/01/01 05:26:09;;;;;;;;;;;;;;;16.33;62.63;100760.59;2086411;28;19971;-73
2023/01/01 05:27:11;;;;;;;;;;;;;;;16.33;62.64;100754.38;2075676;28;20027;-74
2023/01/01 05:28:13;;;;;;;;;;;;;;;16.32;62.73;100769.94;2079094;28;19929;-74
2023/01/01 05:29:18;;;;;;;;;;;;;;;16.32;62.82;100758.25;2072398;28;19930;-73
2023/01/01 05:30:20;;;;;;;;;;;;;;;16.32;62.82;100769.94;2069623;28;20012;-73
2023/01/01 05:31:23;;;;;;;;;;;;;;;16.33;62.82;100771.50;2071274;28;19951;-73
2023/01/01 05:32:27;;;;;;;;;;;;;;;16.33;62.78;100765.28;2087860;28;19925;-73